KFSI/FSI METAR and TAF weather

Enter ICAO airport designator
Station Type Date Time Source
KFSI METAR 2020/11/27 14:56 UTC NOAA

KFSI 271456Z AUTO 36014KT 10SM CLR 05/03 A3018 RMK AO2 SLP221 T00500025 52029 $


Station Type Date Time Source
KFSI Decoded METAR 2020/11/27 14:56 UTC NOAA

Fort Sill, OK, United States (KFSI) 34-36N 098-24W 360M
Nov 27, 2020 - 09:56 AM EST / 2020.11.27 1456 UTC
Wind: from the N (360 degrees) at 16 MPH (14 KT):0
Visibility: 10 mile(s):0
Sky conditions: clear
Temperature: 41.0 F (5.0 C)
Dew Point: 36.5 F (2.5 C)
Relative Humidity: 83%
Pressure (altimeter): 30.18 in. Hg (1022 hPa)
Pressure tendency: 0.09 inches (2.9 hPa) higher than three hours ago
ob: KFSI 271456Z AUTO 36014KT 10SM CLR 05/03 A3018 RMK AO2 SLP221 T00500025 52029
cycle: 15

Station Type Date Time Source
KFSI TAF 2020/11/03 14:12 UTC NOAA

TAF KFSI 031400Z 0314/0420 19009KT 9999 SKC QNH3019INS TX19/0320Z TN04/0410Z

Example: see airport list